Flight Track Log - Related Links

Times and Time Zones

All times are in EST time to prevent confusion due to time zone crossing. See the DAL6232 flight status page for this flight to view local times or setup timezone preferences in your user account.


Time Position Orientation Groundspeed Altitude Reporting Facility
EST Latitude Longitude Course Direction KTS MPH feet Rate Location/Type
Wed 01:28:38 PM 40.8167 -73.9167 257° West 174 200 3,800  Level New York TRACON
Wed 01:29:38 PM 40.8667 -73.9500 333° Northwest 222 255 7,000 3,300 Climbing New York TRACON
Wed 01:30:38 PM 40.9000 -74.0333 298° West 243 280 10,400 3,200 Climbing New York TRACON
Wed 01:31:38 PM 40.9000 -74.1333 270° West 261 300 13,400 2,300 Climbing New York TRACON
Wed 01:32:38 PM 40.9000 -74.2333 270° West 299 344 15,000 1,556 Climbing New York TRACON
Wed 01:33:53 PM 40.9022 -74.3839 271° West 343 395 16,900 889 Climbing New York Center
Wed 01:34:00 PM 40.7632 -74.5615 257° West  Level Estimated
Wed 01:34:53 PM 40.9050 -74.4967 272° West 353 406 17,000  Level New York Center
Wed 01:35:53 PM 40.9086 -74.6397 272° West 353 406 17,000  Level New York Center
Wed 01:36:53 PM 40.9111 -74.7550 272° West 353 406 17,000  Level New York Center
Wed 01:37:53 PM 40.9144 -74.8981 272° West 353 406 17,000 700 Level New York Center
Wed 01:38:53 PM 40.9161 -75.0300 271° West 353 406 18,400 1,700 Climbing New York Center
Wed 01:39:53 PM 40.9158 -75.1481 270° West 353 406 20,400 2,200 Climbing New York Center
Wed 01:40:53 PM 40.8922 -75.2811 257° West 365 420 22,800 2,200 Climbing New York Center
Wed 01:41:53 PM 40.8617 -75.4244 254° West 376 433 24,800 1,950 Climbing New York Center
Wed 01:42:53 PM 40.8314 -75.5567 253° West 376 433 26,700 1,600 Climbing New York Center
Wed 01:43:53 PM 40.7989 -75.6861 252° West 376 433 28,000 650 Climbing New York Center
Wed 01:44:53 PM 40.7681 -75.8236 254° West 381 438 28,000  Level New York Center
Wed 01:45:53 PM 40.7331 -75.9581 251° West 387 445 28,000  Level New York Center
Wed 01:46:53 PM 40.7019 -76.0953 253° West 393 452 28,000  Level New York Center
Wed 01:47:53 PM 40.6686 -76.2322 252° West 398 458 28,000  Level New York Center
Wed 01:48:53 PM 40.6814 -76.3619 277° West 370 426 28,000  Level New York Center
Wed 01:49:53 PM 40.7042 -76.4925 283° West 358 412 28,000  Level New York Center
Wed 01:50:53 PM 40.7211 -76.6197 280° West 363 418 28,000  Level New York Center
Wed 01:51:53 PM 40.7414 -76.7531 281° West 368 423 28,000  Level New York Center
Wed 01:52:53 PM 40.7619 -76.8836 282° West 368 423 28,000  Level New York Center
Wed 01:53:53 PM 40.7800 -77.0169 280° West 368 423 28,000  Level New York Center
Wed 01:54:53 PM 40.7978 -77.1500 280° West 368 423 28,000 -50 Level New York Center
Wed 01:55:53 PM 40.8181 -77.2781 282° West 368 423 27,900 -700 Descending New York Center
Wed 01:56:53 PM 40.8344 -77.3922 281° West 368 423 26,600 -1,400 Descending New York Center
Wed 01:57:53 PM 40.8508 -77.5092 281° West 348 400 25,100 -1,598 Descending New York Center
Wed 01:59:42 PM 40.8814 -77.7322 280° West 319 367 22,100 -1,088 Descending Cleveland Center
Wed 02:00:44 PM 40.8983 -77.8483 281° West 323 372 22,000 -48 Descending Cleveland Center
Wed 02:01:46 PM 40.9136 -77.9672 280° West 329 379 22,000  Level Cleveland Center
Wed 02:02:48 PM 40.9197 -78.0900 274° West 334 384 22,000  Level Cleveland Center
Wed 02:03:50 PM 40.9239 -78.2125 273° West 335 386 22,000  Level Cleveland Center
Wed 02:04:52 PM 40.9281 -78.3414 272° West 333 383 22,000  Level Cleveland Center
Wed 02:05:54 PM 40.9250 -78.4647 268° West 337 388 22,000 -532 Level Cleveland Center
Wed 02:06:56 PM 40.9183 -78.5797 266° West 313 360 20,900 -1,680 Descending Cleveland Center
Wed 02:07:59 PM 40.9139 -78.7081 267° West 295 339 18,500 -2,064 Descending Cleveland Center
Wed 02:09:01 PM 40.9103 -78.8164 268° West 295 339 16,600 -1,887 Descending Cleveland Center
Wed 02:10:03 PM 40.9042 -78.9297 266° West 304 350 14,600 -1,935 Descending Cleveland Center
Wed 02:11:05 PM 40.8981 -79.0433 266° West 311 358 12,600 -1,742 Descending Cleveland Center
Wed 02:12:07 PM 40.8922 -79.1569 266° West 309 356 11,000 -823 Descending Cleveland Center
Wed 02:13:09 PM 40.8872 -79.2642 267° West 300 345 10,900  Descending Cleveland Center
Wed 02:14:11 PM 40.8803 -79.3953 266° West 299 344 11,000 48 Climbing Cleveland Center
Wed 02:15:13 PM 40.8736 -79.5061 265° West 303 349 11,000  Level Cleveland Center
Wed 02:16:15 PM 40.8683 -79.6139 266° West 298 343 11,000 -435 Level Cleveland Center
Wed 02:17:17 PM 40.8606 -79.7183 264° West 291 335 10,100 -484 Descending Cleveland Center
Wed 02:18:19 PM 40.8431 -79.8231 258° West 301 346 10,000 -774 Descending Cleveland Center
Wed 02:19:21 PM 40.7514 -79.8667 200° South 296 341 8,500 -1,632 Descending Cleveland Center
Wed 02:20:24 PM 40.6744 -79.8894 193° South 288 331 6,600 -1,584 Descending Cleveland Center
Wed 02:21:26 PM 40.6014 -79.9153 195° South 278 320 5,200 -1,161 Descending Cleveland Center
Wed 02:22:28 PM 40.5406 -79.9403 197° South 251 289 4,200 -581 Descending Cleveland Center
Wed 02:23:30 PM 40.5050 -79.9808 221° Southwest 186 214 4,000 -97 Descending Cleveland Center
Wed 02:24:32 PM 40.4953 -80.0414 258° West 172 198 4,000 -339 Level Cleveland Center
Wed 02:25:34 PM 40.4972 -80.1017 272° West 150 173 3,300 -629 Descending Cleveland Center
Wed 02:26:36 PM 40.4983 -80.1428 272° West 127 146 2,700 -629 Descending Cleveland Center
Wed 02:27:38 PM 40.4994 -80.1858 272° West 122 140 2,000 -677 Descending Cleveland Center
Wed 02:29:00 PM 40.4833 -80.2167 237° Southwest  Level FlightAware Approximate

Login

Don't have an account? Register now (free) for customized features, flight alerts, and more!